sensor_id;sensor_type;location;lat;lon;timestamp;pressure;altitude;pressure_sealevel;temperature;humidity
39739;BME280;25422;48.286;8.484;2023-02-22T00:00:23;93987.94;;;-1.84;100.00
39739;BME280;25422;48.286;8.484;2023-02-22T00:03:26;93994.47;;;-1.93;100.00
39739;BME280;25422;48.286;8.484;2023-02-22T00:05:57;93983.16;;;-2.03;100.00
39739;BME280;25422;48.286;8.484;2023-02-22T00:08:28;93981.41;;;-2.03;100.00
39739;BME280;25422;48.286;8.484;2023-02-22T00:10:56;93987.28;;;-2.00;100.00
39739;BME280;25422;48.286;8.484;2023-02-22T00:13:21;93987.28;;;-2.00;100.00
39739;BME280;25422;48.286;8.484;2023-02-22T00:15:49;93984.91;;;-2.04;100.00
39739;BME280;25422;48.286;8.484;2023-02-22T00:18:16;93982.75;;;-2.10;100.00
39739;BME280;25422;48.286;8.484;2023-02-22T00:20:42;93981.53;;;-2.04;100.00
39739;BME280;25422;48.286;8.484;2023-02-22T00:23:22;93976.19;;;-2.01;100.00
39739;BME280;25422;48.286;8.484;2023-02-22T00:25:49;93981.63;;;-2.06;100.00
39739;BME280;25422;48.286;8.484;2023-02-22T00:28:16;93974.75;;;-2.05;100.00
39739;BME280;25422;48.286;8.484;2023-02-22T00:30:42;93975.59;;;-2.05;100.00
39739;BME280;25422;48.286;8.484;2023-02-22T00:33:09;93978.16;;;-2.05;100.00
39739;BME280;25422;48.286;8.484;2023-02-22T00:35:35;93974.03;;;-2.07;100.00
39739;BME280;25422;48.286;8.484;2023-02-22T00:38:02;93971.69;;;-2.10;100.00
39739;BME280;25422;48.286;8.484;2023-02-22T00:40:30;93973.94;;;-2.06;100.00
39739;BME280;25422;48.286;8.484;2023-02-22T00:42:57;93966.34;;;-2.07;100.00
39739;BME280;25422;48.286;8.484;2023-02-22T00:45:25;93969.94;;;-2.10;100.00
39739;BME280;25422;48.286;8.484;2023-02-22T00:47:51;93964.50;;;-2.05;100.00
39739;BME280;25422;48.286;8.484;2023-02-22T00:50:19;93968.81;;;-2.06;100.00
39739;BME280;25422;48.286;8.484;2023-02-22T00:52:45;93961.94;;;-2.05;100.00
39739;BME280;25422;48.286;8.484;2023-02-22T00:55:17;93960.69;;;-2.12;100.00
39739;BME280;25422;48.286;8.484;2023-02-22T00:57:44;93953.91;;;-2.13;100.00
39739;BME280;25422;48.286;8.484;2023-02-22T01:00:15;93955.88;;;-2.17;100.00
39739;BME280;25422;48.286;8.484;2023-02-22T01:02:42;93956.03;;;-2.20;100.00
39739;BME280;25422;48.286;8.484;2023-02-22T01:05:09;93947.66;;;-2.22;100.00
39739;BME280;25422;48.286;8.484;2023-02-22T01:07:37;93947.44;;;-2.19;100.00
39739;BME280;25422;48.286;8.484;2023-02-22T01:10:04;93943.06;;;-2.17;100.00
39739;BME280;25422;48.286;8.484;2023-02-22T01:12:29;93944.78;;;-2.17;100.00
39739;BME280;25422;48.286;8.484;2023-02-22T01:14:57;93942.31;;;-2.19;100.00
39739;BME280;25422;48.286;8.484;2023-02-22T01:17:23;93942.31;;;-2.19;100.00
39739;BME280;25422;48.286;8.484;2023-02-22T01:19:50;93934.72;;;-2.21;100.00
39739;BME280;25422;48.286;8.484;2023-02-22T01:22:17;93945.69;;;-2.18;100.00
39739;BME280;25422;48.286;8.484;2023-02-22T01:24:43;93938.63;;;-2.15;100.00
39739;BME280;25422;48.286;8.484;2023-02-22T01:27:09;93933.72;;;-2.18;100.00
39739;BME280;25422;48.286;8.484;2023-02-22T01:29:36;93936.47;;;-2.21;100.00
39739;BME280;25422;48.286;8.484;2023-02-22T01:32:02;93927.03;;;-2.21;100.00
39739;BME280;25422;48.286;8.484;2023-02-22T01:34:27;93931.25;;;-2.19;100.00
39739;BME280;25422;48.286;8.484;2023-02-22T01:36:54;93928.44;;;-2.29;100.00
39739;BME280;25422;48.286;8.484;2023-02-22T01:39:19;93925.25;;;-2.33;100.00
39739;BME280;25422;48.286;8.484;2023-02-22T01:41:45;93928.63;;;-2.32;100.00
39739;BME280;25422;48.286;8.484;2023-02-22T01:44:30;93923.25;;;-2.28;100.00
39739;BME280;25422;48.286;8.484;2023-02-22T01:46:59;93926.72;;;-2.29;100.00
39739;BME280;25422;48.286;8.484;2023-02-22T01:49:28;93920.94;;;-2.32;100.00
39739;BME280;25422;48.286;8.484;2023-02-22T01:51:56;93913.56;;;-2.37;100.00
39739;BME280;25422;48.286;8.484;2023-02-22T01:54:32;93913.94;;;-2.43;100.00
39739;BME280;25422;48.286;8.484;2023-02-22T01:57:28;93911.28;;;-2.42;100.00
39739;BME280;25422;48.286;8.484;2023-02-22T01:59:58;93907.09;;;-2.43;100.00
39739;BME280;25422;48.286;8.484;2023-02-22T02:02:25;93904.53;;;-2.43;100.00
39739;BME280;25422;48.286;8.484;2023-02-22T02:04:53;93897.56;;;-2.41;100.00
39739;BME280;25422;48.286;8.484;2023-02-22T02:07:21;93899.13;;;-2.38;100.00
39739;BME280;25422;48.286;8.484;2023-02-22T02:10:01;93894.00;;;-2.38;100.00
39739;BME280;25422;48.286;8.484;2023-02-22T02:12:30;93894.28;;;-2.43;100.00
39739;BME280;25422;48.286;8.484;2023-02-22T02:17:41;93887.72;;;-2.47;100.00
39739;BME280;25422;48.286;8.484;2023-02-22T02:20:21;93883.41;;;-2.46;100.00
39739;BME280;25422;48.286;8.484;2023-02-22T02:22:56;93873.53;;;-2.52;100.00
39739;BME280;25422;48.286;8.484;2023-02-22T02:28:37;93873.81;;;-2.43;100.00
39739;BME280;25422;48.286;8.484;2023-02-22T02:34:04;93874.03;;;-2.33;100.00
39739;BME280;25422;48.286;8.484;2023-02-22T02:37:03;93869.50;;;-2.29;100.00
39739;BME280;25422;48.286;8.484;2023-02-22T02:39:52;93865.59;;;-2.35;100.00
39739;BME280;25422;48.286;8.484;2023-02-22T02:42:23;93866.81;;;-2.41;100.00
39739;BME280;25422;48.286;8.484;2023-02-22T02:44:55;93867.03;;;-2.44;100.00
39739;BME280;25422;48.286;8.484;2023-02-22T02:47:31;93852.88;;;-2.49;100.00
39739;BME280;25422;48.286;8.484;2023-02-22T02:50:39;93853.69;;;-2.49;100.00
39739;BME280;25422;48.286;8.484;2023-02-22T02:53:07;93846.81;;;-2.48;100.00
39739;BME280;25422;48.286;8.484;2023-02-22T02:55:34;93842.31;;;-2.58;100.00
39739;BME280;25422;48.286;8.484;2023-02-22T02:58:03;93839.50;;;-2.67;100.00
39739;BME280;25422;48.286;8.484;2023-02-22T03:00:32;93842.56;;;-2.75;100.00
39739;BME280;25422;48.286;8.484;2023-02-22T03:11:27;93829.91;;;-2.91;100.00
39739;BME280;25422;48.286;8.484;2023-02-22T03:14:10;93836.13;;;-2.95;100.00
39739;BME280;25422;48.286;8.484;2023-02-22T03:16:45;93834.78;;;-3.01;100.00
39739;BME280;25422;48.286;8.484;2023-02-22T03:19:50;93835.91;;;-3.05;100.00
39739;BME280;25422;48.286;8.484;2023-02-22T03:22:22;93842.41;;;-3.14;100.00
39739;BME280;25422;48.286;8.484;2023-02-22T03:24:57;93831.63;;;-3.19;100.00
39739;BME280;25422;48.286;8.484;2023-02-22T03:27:32;93834.19;;;-3.19;100.00
39739;BME280;25422;48.286;8.484;2023-02-22T03:30:04;93835.13;;;-3.20;100.00
39739;BME280;25422;48.286;8.484;2023-02-22T03:32:36;93833.28;;;-3.18;100.00
39739;BME280;25422;48.286;8.484;2023-02-22T03:35:10;93833.28;;;-3.18;100.00
39739;BME280;25422;48.286;8.484;2023-02-22T03:37:41;93828.06;;;-3.16;100.00
39739;BME280;25422;48.286;8.484;2023-02-22T03:40:12;93820.28;;;-3.15;100.00
39739;BME280;25422;48.286;8.484;2023-02-22T03:42:49;93825.31;;;-3.13;100.00
39739;BME280;25422;48.286;8.484;2023-02-22T03:45:19;93825.38;;;-3.15;100.00
39739;BME280;25422;48.286;8.484;2023-02-22T03:47:56;93818.22;;;-3.23;100.00
39739;BME280;25422;48.286;8.484;2023-02-22T03:50:28;93823.22;;;-3.21;100.00
39739;BME280;25422;48.286;8.484;2023-02-22T03:52:55;93822.50;;;-3.23;100.00
39739;BME280;25422;48.286;8.484;2023-02-22T03:55:26;93821.78;;;-3.25;100.00
39739;BME280;25422;48.286;8.484;2023-02-22T03:58:06;93822.50;;;-3.23;100.00
39739;BME280;25422;48.286;8.484;2023-02-22T04:00:34;93810.53;;;-3.23;100.00
39739;BME280;25422;48.286;8.484;2023-02-22T04:03:01;93815.13;;;-3.28;100.00
39739;BME280;25422;48.286;8.484;2023-02-22T04:05:27;93810.09;;;-3.29;100.00
39739;BME280;25422;48.286;8.484;2023-02-22T04:07:54;93812.47;;;-3.26;100.00
39739;BME280;25422;48.286;8.484;2023-02-22T04:10:20;93817.00;;;-3.17;100.00
39739;BME280;25422;48.286;8.484;2023-02-22T04:12:47;93813.97;;;-3.09;100.00
39739;BME280;25422;48.286;8.484;2023-02-22T04:15:15;93812.94;;;-3.07;100.00
39739;BME280;25422;48.286;8.484;2023-02-22T04:17:42;93819.59;;;-3.04;100.00
39739;BME280;25422;48.286;8.484;2023-02-22T04:20:11;93808.75;;;-3.08;100.00
39739;BME280;25422;48.286;8.484;2023-02-22T04:22:46;93808.03;;;-3.10;100.00
39739;BME280;25422;48.286;8.484;2023-02-22T04:25:12;93807.81;;;-3.07;100.00
39739;BME280;25422;48.286;8.484;2023-02-22T04:27:38;93806.75;;;-3.02;100.00
39739;BME280;25422;48.286;8.484;2023-02-22T04:30:04;93805.91;;;-3.03;100.00
39739;BME280;25422;48.286;8.484;2023-02-22T04:32:31;93807.31;;;-3.12;100.00
39739;BME280;25422;48.286;8.484;2023-02-22T04:34:58;93800.75;;;-3.16;100.00
39739;BME280;25422;48.286;8.484;2023-02-22T04:37:23;93801.84;;;-3.20;100.00
39739;BME280;25422;48.286;8.484;2023-02-22T04:39:49;93795.28;;;-3.24;100.00
39739;BME280;25422;48.286;8.484;2023-02-22T04:42:15;93801.25;;;-3.11;100.00
39739;BME280;25422;48.286;8.484;2023-02-22T04:44:41;93804.75;;;-3.12;100.00
39739;BME280;25422;48.286;8.484;2023-02-22T04:47:07;93796.91;;;-3.23;100.00
39739;BME280;25422;48.286;8.484;2023-02-22T04:49:32;93800.97;;;-3.33;100.00
39739;BME280;25422;48.286;8.484;2023-02-22T04:51:57;93787.25;;;-3.32;100.00
39739;BME280;25422;48.286;8.484;2023-02-22T04:54:31;93799.69;;;-3.41;100.00
39739;BME280;25422;48.286;8.484;2023-02-22T04:56:57;93798.97;;;-3.43;100.00
39739;BME280;25422;48.286;8.484;2023-02-22T04:59:22;93798.59;;;-3.36;100.00
39739;BME280;25422;48.286;8.484;2023-02-22T05:01:54;93793.84;;;-3.28;100.00
39739;BME280;25422;48.286;8.484;2023-02-22T05:04:19;93787.44;;;-3.35;100.00
39739;BME280;25422;48.286;8.484;2023-02-22T05:06:46;93794.41;;;-3.37;100.00
39739;BME280;25422;48.286;8.484;2023-02-22T05:09:12;93797.88;;;-3.39;100.00
39739;BME280;25422;48.286;8.484;2023-02-22T05:11:37;93791.31;;;-3.43;100.00
39739;BME280;25422;48.286;8.484;2023-02-22T05:14:02;93795.16;;;-3.50;100.00
39739;BME280;25422;48.286;8.484;2023-02-22T05:16:28;93788.22;;;-3.48;100.00
39739;BME280;25422;48.286;8.484;2023-02-22T05:18:53;93786.75;;;-3.52;100.00
39739;BME280;25422;48.286;8.484;2023-02-22T05:21:18;93792.22;;;-3.44;100.00
39739;BME280;25422;48.286;8.484;2023-02-22T05:23:44;93788.34;;;-3.36;100.00
39739;BME280;25422;48.286;8.484;2023-02-22T05:26:09;93783.78;;;-3.31;100.00
39739;BME280;25422;48.286;8.484;2023-02-22T05:28:35;93783.19;;;-3.22;100.00
39739;BME280;25422;48.286;8.484;2023-02-22T05:31:00;93777.88;;;-3.19;100.00
39739;BME280;25422;48.286;8.484;2023-02-22T05:33:26;93776.69;;;-3.13;100.00
39739;BME280;25422;48.286;8.484;2023-02-22T05:35:51;93778.22;;;-3.11;100.00
39739;BME280;25422;48.286;8.484;2023-02-22T05:38:16;93769.72;;;-3.11;100.00
39739;BME280;25422;48.286;8.484;2023-02-22T05:40:42;93764.63;;;-3.11;100.00
39739;BME280;25422;48.286;8.484;2023-02-22T05:43:09;93762.34;;;-3.16;100.00
39739;BME280;25422;48.286;8.484;2023-02-22T05:45:34;93772.78;;;-3.19;100.00
39739;BME280;25422;48.286;8.484;2023-02-22T05:48:01;93762.88;;;-3.11;100.00
39739;BME280;25422;48.286;8.484;2023-02-22T05:50:27;93763.22;;;-3.02;100.00
39739;BME280;25422;48.286;8.484;2023-02-22T05:52:52;93766.28;;;-2.97;100.00
39739;BME280;25422;48.286;8.484;2023-02-22T05:55:20;93767.72;;;-2.93;100.00
39739;BME280;25422;48.286;8.484;2023-02-22T05:57:46;93761.69;;;-2.92;100.00
39739;BME280;25422;48.286;8.484;2023-02-22T06:00:23;93757.50;;;-2.93;100.00
39739;BME280;25422;48.286;8.484;2023-02-22T06:03:04;93758.13;;;-2.90;100.00
39739;BME280;25422;48.286;8.484;2023-02-22T06:05:29;93750.44;;;-2.90;100.00
39739;BME280;25422;48.286;8.484;2023-02-22T06:07:56;93757.75;;;-2.83;100.00
39739;BME280;25422;48.286;8.484;2023-02-22T06:10:22;93756.31;;;-2.88;100.00
39739;BME280;25422;48.286;8.484;2023-02-22T06:12:48;93759.47;;;-2.84;100.00
39739;BME280;25422;48.286;8.484;2023-02-22T06:15:15;93759.47;;;-2.84;100.00
39739;BME280;25422;48.286;8.484;2023-02-22T06:17:41;93753.00;;;-2.90;100.00
39739;BME280;25422;48.286;8.484;2023-02-22T06:20:11;93757.91;;;-2.99;100.00
39739;BME280;25422;48.286;8.484;2023-02-22T06:22:37;93758.38;;;-3.07;100.00
39739;BME280;25422;48.286;8.484;2023-02-22T06:25:06;93765.16;;;-3.06;100.00
39739;BME280;25422;48.286;8.484;2023-02-22T06:27:32;93759.94;;;-3.05;100.00
39739;BME280;25422;48.286;8.484;2023-02-22T06:29:59;93758.00;;;-3.01;100.00
39739;BME280;25422;48.286;8.484;2023-02-22T06:32:25;93765.81;;;-2.90;100.00
39739;BME280;25422;48.286;8.484;2023-02-22T06:34:50;93763.13;;;-2.88;100.00
39739;BME280;25422;48.286;8.484;2023-02-22T06:37:16;93762.16;;;-2.73;100.00
39739;BME280;25422;48.286;8.484;2023-02-22T06:39:41;93762.06;;;-2.58;100.00
39739;BME280;25422;48.286;8.484;2023-02-22T06:42:07;93764.13;;;-2.50;100.00
39739;BME280;25422;48.286;8.484;2023-02-22T06:44:32;93767.41;;;-2.35;100.00
39739;BME280;25422;48.286;8.484;2023-02-22T06:46:57;93766.81;;;-2.26;100.00
39739;BME280;25422;48.286;8.484;2023-02-22T06:49:24;93772.75;;;-2.13;100.00
39739;BME280;25422;48.286;8.484;2023-02-22T06:51:50;93772.03;;;-2.02;100.00
39739;BME280;25422;48.286;8.484;2023-02-22T06:54:16;93774.69;;;-1.91;100.00
39739;BME280;25422;48.286;8.484;2023-02-22T06:56:42;93769.44;;;-1.76;100.00
39739;BME280;25422;48.286;8.484;2023-02-22T06:59:07;93773.53;;;-1.74;100.00
39739;BME280;25422;48.286;8.484;2023-02-22T07:01:33;93769.84;;;-1.70;100.00
39739;BME280;25422;48.286;8.484;2023-02-22T07:03:58;93775.56;;;-1.66;100.00
39739;BME280;25422;48.286;8.484;2023-02-22T07:06:23;93777.28;;;-1.54;100.00
39739;BME280;25422;48.286;8.484;2023-02-22T07:08:49;93775.44;;;-1.51;100.00
39739;BME280;25422;48.286;8.484;2023-02-22T07:11:15;93774.69;;;-1.41;100.00
39739;BME280;25422;48.286;8.484;2023-02-22T07:13:41;93779.28;;;-1.33;100.00
39739;BME280;25422;48.286;8.484;2023-02-22T07:16:07;93784.78;;;-1.26;100.00
39739;BME280;25422;48.286;8.484;2023-02-22T07:18:33;93788.59;;;-1.19;100.00
39739;BME280;25422;48.286;8.484;2023-02-22T07:20:58;93783.28;;;-1.05;100.00
39739;BME280;25422;48.286;8.484;2023-02-22T07:23:24;93787.56;;;-0.92;100.00
39739;BME280;25422;48.286;8.484;2023-02-22T07:25:49;93782.47;;;-0.81;100.00
39739;BME280;25422;48.286;8.484;2023-02-22T07:28:15;93792.53;;;-0.66;100.00
39739;BME280;25422;48.286;8.484;2023-02-22T07:30:40;93792.66;;;-0.68;100.00
39739;BME280;25422;48.286;8.484;2023-02-22T07:33:09;93786.31;;;-0.51;100.00
39739;BME280;25422;48.286;8.484;2023-02-22T07:35:37;93783.47;;;-0.12;100.00
39739;BME280;25422;48.286;8.484;2023-02-22T07:38:04;93790.75;;;0.28;100.00
39739;BME280;25422;48.286;8.484;2023-02-22T07:40:30;93781.97;;;1.08;100.00
39739;BME280;25422;48.286;8.484;2023-02-22T07:43:01;93787.72;;;1.87;100.00
39739;BME280;25422;48.286;8.484;2023-02-22T07:45:29;93783.53;;;2.38;100.00
39739;BME280;25422;48.286;8.484;2023-02-22T07:47:55;93780.75;;;3.20;100.00
39739;BME280;25422;48.286;8.484;2023-02-22T07:50:22;93779.91;;;3.88;100.00
39739;BME280;25422;48.286;8.484;2023-02-22T07:52:49;93783.34;;;4.36;100.00
39739;BME280;25422;48.286;8.484;2023-02-22T07:55:16;93778.25;;;5.28;100.00
39739;BME280;25422;48.286;8.484;2023-02-22T07:57:43;93781.03;;;6.94;100.00
39739;BME280;25422;48.286;8.484;2023-02-22T08:00:10;93777.47;;;7.63;93.17
39739;BME280;25422;48.286;8.484;2023-02-22T08:02:39;93775.50;;;8.22;83.49
39739;BME280;25422;48.286;8.484;2023-02-22T08:05:06;93775.59;;;8.62;80.16
39739;BME280;25422;48.286;8.484;2023-02-22T08:07:31;93779.50;;;8.66;80.06
39739;BME280;25422;48.286;8.484;2023-02-22T08:09:56;93781.81;;;8.36;79.40
39739;BME280;25422;48.286;8.484;2023-02-22T08:12:22;93780.25;;;7.86;84.52
39739;BME280;25422;48.286;8.484;2023-02-22T08:14:48;93784.63;;;7.85;87.55
39739;BME280;25422;48.286;8.484;2023-02-22T08:17:13;93778.25;;;7.47;88.16
39739;BME280;25422;48.286;8.484;2023-02-22T08:19:39;93777.53;;;7.28;91.00
39739;BME280;25422;48.286;8.484;2023-02-22T08:22:05;93770.31;;;6.97;91.95
39739;BME280;25422;48.286;8.484;2023-02-22T08:24:30;93771.72;;;6.22;100.00
39739;BME280;25422;48.286;8.484;2023-02-22T08:26:57;93769.06;;;5.52;100.00
39739;BME280;25422;48.286;8.484;2023-02-22T08:29:22;93774.56;;;5.49;100.00
39739;BME280;25422;48.286;8.484;2023-02-22T08:31:51;93772.66;;;5.95;100.00
39739;BME280;25422;48.286;8.484;2023-02-22T08:34:19;93775.81;;;6.51;100.00
39739;BME280;25422;48.286;8.484;2023-02-22T08:36:44;93767.66;;;6.81;100.00
39739;BME280;25422;48.286;8.484;2023-02-22T08:39:10;93762.31;;;7.74;99.68
39739;BME280;25422;48.286;8.484;2023-02-22T08:41:35;93771.75;;;7.92;96.73
39739;BME280;25422;48.286;8.484;2023-02-22T08:44:01;93774.53;;;7.74;100.00
39739;BME280;25422;48.286;8.484;2023-02-22T08:46:26;93776.66;;;7.95;100.00
39739;BME280;25422;48.286;8.484;2023-02-22T08:48:52;93769.44;;;9.03;94.33
39739;BME280;25422;48.286;8.484;2023-02-22T08:51:18;93759.06;;;10.19;81.52
39739;BME280;25422;48.286;8.484;2023-02-22T08:53:44;93762.91;;;10.76;74.72
39739;BME280;25422;48.286;8.484;2023-02-22T08:56:10;93757.03;;;11.04;71.13
39739;BME280;25422;48.286;8.484;2023-02-22T08:58:35;93765.09;;;11.97;69.83
39739;BME280;25422;48.286;8.484;2023-02-22T09:01:01;93771.41;;;12.88;60.12
39739;BME280;25422;48.286;8.484;2023-02-22T09:03:27;93761.31;;;12.85;60.56
39739;BME280;25422;48.286;8.484;2023-02-22T09:05:53;93761.19;;;12.99;59.14
39739;BME280;25422;48.286;8.484;2023-02-22T09:08:19;93755.97;;;13.13;57.75
39739;BME280;25422;48.286;8.484;2023-02-22T09:10:44;93758.03;;;13.86;56.23
39739;BME280;25422;48.286;8.484;2023-02-22T09:13:10;93758.81;;;13.18;55.96
39739;BME280;25422;48.286;8.484;2023-02-22T09:15:37;93753.78;;;13.23;57.75
39739;BME280;25422;48.286;8.484;2023-02-22T09:18:05;93757.03;;;13.19;57.39
39739;BME280;25422;48.286;8.484;2023-02-22T09:20:33;93751.09;;;12.33;60.79
39739;BME280;25422;48.286;8.484;2023-02-22T09:23:03;93758.56;;;12.36;59.98
39739;BME280;25422;48.286;8.484;2023-02-22T09:25:29;93756.41;;;12.18;63.24
39739;BME280;25422;48.286;8.484;2023-02-22T09:27:55;93758.31;;;11.88;63.39
39739;BME280;25422;48.286;8.484;2023-02-22T09:30:35;93759.56;;;11.92;63.83
39739;BME280;25422;48.286;8.484;2023-02-22T09:33:07;93757.72;;;11.64;69.77
39739;BME280;25422;48.286;8.484;2023-02-22T09:35:34;93749.44;;;11.45;78.10
39739;BME280;25422;48.286;8.484;2023-02-22T09:38:01;93756.75;;;11.50;80.39
39739;BME280;25422;48.286;8.484;2023-02-22T09:40:31;93759.25;;;11.07;84.85
39739;BME280;25422;48.286;8.484;2023-02-22T09:48:35;93754.16;;;10.54;87.71
39739;BME280;25422;48.286;8.484;2023-02-22T09:51:10;93759.31;;;10.24;87.58
39739;BME280;25422;48.286;8.484;2023-02-22T09:53:43;93756.84;;;10.45;86.52
39739;BME280;25422;48.286;8.484;2023-02-22T09:56:11;93756.03;;;10.45;84.36
39739;BME280;25422;48.286;8.484;2023-02-22T09:58:42;93757.22;;;10.72;83.15
39739;BME280;25422;48.286;8.484;2023-02-22T10:07:25;93742.34;;;12.89;65.53
39739;BME280;25422;48.286;8.484;2023-02-22T10:09:54;93744.75;;;11.77;56.21
39739;BME280;25422;48.286;8.484;2023-02-22T10:12:41;93749.09;;;11.34;57.08
39739;BME280;25422;48.286;8.484;2023-02-22T10:15:24;93743.06;;;11.33;57.76
39739;BME280;25422;48.286;8.484;2023-02-22T10:20:34;93743.72;;;11.57;54.93
39739;BME280;25422;48.286;8.484;2023-02-22T10:23:28;93739.22;;;11.51;56.08
39739;BME280;25422;48.286;8.484;2023-02-22T10:26:12;93738.47;;;11.57;55.93
39739;BME280;25422;48.286;8.484;2023-02-22T10:28:43;93741.97;;;11.42;54.39
39739;BME280;25422;48.286;8.484;2023-02-22T10:31:20;93732.63;;;11.18;55.60
39739;BME280;25422;48.286;8.484;2023-02-22T10:33:54;93732.56;;;11.11;55.87
39739;BME280;25422;48.286;8.484;2023-02-22T10:36:22;93725.38;;;11.57;55.32
39739;BME280;25422;48.286;8.484;2023-02-22T10:39:01;93733.38;;;11.70;53.73
39739;BME280;25422;48.286;8.484;2023-02-22T10:41:41;93726.97;;;11.36;54.67
39739;BME280;25422;48.286;8.484;2023-02-22T10:44:09;93722.66;;;11.28;54.57
39739;BME280;25422;48.286;8.484;2023-02-22T10:46:35;93724.34;;;11.00;55.50
39739;BME280;25422;48.286;8.484;2023-02-22T10:49:04;93720.56;;;11.02;55.84
39739;BME280;25422;48.286;8.484;2023-02-22T10:51:34;93719.00;;;11.08;57.23
39739;BME280;25422;48.286;8.484;2023-02-22T10:56:48;93718.44;;;11.27;57.88
39739;BME280;25422;48.286;8.484;2023-02-22T10:59:26;93717.84;;;11.10;58.09
39739;BME280;25422;48.286;8.484;2023-02-22T11:01:53;93718.13;;;11.01;58.40
39739;BME280;25422;48.286;8.484;2023-02-22T11:04:20;93715.78;;;11.06;59.81
39739;BME280;25422;48.286;8.484;2023-02-22T11:07:06;93716.28;;;11.16;59.57
39739;BME280;25422;48.286;8.484;2023-02-22T11:12:19;93710.09;;;11.39;58.97
39739;BME280;25422;48.286;8.484;2023-02-22T11:14:45;93710.94;;;11.24;61.38
39739;BME280;25422;48.286;8.484;2023-02-22T11:17:15;93704.94;;;11.09;59.02
39739;BME280;25422;48.286;8.484;2023-02-22T11:19:47;93700.25;;;11.04;59.49
39739;BME280;25422;48.286;8.484;2023-02-22T11:22:26;93703.03;;;11.39;59.46
39739;BME280;25422;48.286;8.484;2023-02-22T11:24:58;93699.47;;;11.90;58.74
39739;BME280;25422;48.286;8.484;2023-02-22T11:27:41;93706.69;;;12.03;58.86
39739;BME280;25422;48.286;8.484;2023-02-22T11:30:16;93700.94;;;12.50;57.81
39739;BME280;25422;48.286;8.484;2023-02-22T11:32:47;93699.84;;;12.37;57.29
39739;BME280;25422;48.286;8.484;2023-02-22T11:37:45;93689.03;;;12.89;57.82
39739;BME280;25422;48.286;8.484;2023-02-22T11:40:21;93688.06;;;13.03;57.47
39739;BME280;25422;48.286;8.484;2023-02-22T11:42:48;93673.31;;;13.09;56.77
39739;BME280;25422;48.286;8.484;2023-02-22T11:45:20;93680.34;;;12.95;57.74
39739;BME280;25422;48.286;8.484;2023-02-22T11:47:57;93677.69;;;12.88;58.38
39739;BME280;25422;48.286;8.484;2023-02-22T11:50:43;93674.00;;;13.24;57.18
39739;BME280;25422;48.286;8.484;2023-02-22T11:53:40;93676.56;;;13.11;57.38
39739;BME280;25422;48.286;8.484;2023-02-22T11:56:15;93667.78;;;13.45;57.42
39739;BME280;25422;48.286;8.484;2023-02-22T11:58:49;93665.56;;;13.36;58.41
39739;BME280;25422;48.286;8.484;2023-02-22T12:07:35;93670.47;;;13.86;56.08
39739;BME280;25422;48.286;8.484;2023-02-22T12:13:21;93671.06;;;13.68;57.63
39739;BME280;25422;48.286;8.484;2023-02-22T12:16:02;93667.84;;;14.19;58.86
39739;BME280;25422;48.286;8.484;2023-02-22T12:18:38;93659.53;;;13.89;59.57
39739;BME280;25422;48.286;8.484;2023-02-22T12:21:12;93652.06;;;13.79;61.20
39739;BME280;25422;48.286;8.484;2023-02-22T12:26:28;93658.91;;;14.20;59.76
39739;BME280;25422;48.286;8.484;2023-02-22T12:29:00;93662.56;;;13.59;61.53
39739;BME280;25422;48.286;8.484;2023-02-22T12:31:57;93668.63;;;14.06;61.06
39739;BME280;25422;48.286;8.484;2023-02-22T12:34:33;93658.13;;;14.13;60.39
39739;BME280;25422;48.286;8.484;2023-02-22T12:37:17;93662.78;;;14.18;59.91
39739;BME280;25422;48.286;8.484;2023-02-22T12:40:13;93666.91;;;13.25;63.44
39739;BME280;25422;48.286;8.484;2023-02-22T12:45:19;93664.75;;;12.80;71.03
39739;BME280;25422;48.286;8.484;2023-02-22T12:47:53;93661.47;;;12.29;74.93
39739;BME280;25422;48.286;8.484;2023-02-22T12:50:27;93674.13;;;12.26;79.41
39739;BME280;25422;48.286;8.484;2023-02-22T12:53:03;93658.84;;;12.29;79.43
39739;BME280;25422;48.286;8.484;2023-02-22T12:55:39;93665.00;;;12.15;83.43
39739;BME280;25422;48.286;8.484;2023-02-22T12:58:42;93654.94;;;12.54;82.13
39739;BME280;25422;48.286;8.484;2023-02-22T13:01:17;93654.28;;;12.45;83.21
39739;BME280;25422;48.286;8.484;2023-02-22T13:03:44;93660.19;;;12.19;82.49
39739;BME280;25422;48.286;8.484;2023-02-22T13:12:06;93664.53;;;12.05;88.31
39739;BME280;25422;48.286;8.484;2023-02-22T13:14:37;93653.72;;;11.93;90.04
39739;BME280;25422;48.286;8.484;2023-02-22T13:17:53;93658.09;;;12.07;88.54
39739;BME280;25422;48.286;8.484;2023-02-22T13:20:05;93656.72;;;11.90;90.34
39739;BME280;25422;48.286;8.484;2023-02-22T13:22:49;93655.84;;;11.82;91.87
39739;BME280;25422;48.286;8.484;2023-02-22T13:25:36;93656.53;;;11.91;91.45
39739;BME280;25422;48.286;8.484;2023-02-22T13:28:17;93654.00;;;11.98;90.36
39739;BME280;25422;48.286;8.484;2023-02-22T13:33:47;93649.00;;;11.81;91.85
39739;BME280;25422;48.286;8.484;2023-02-22T13:39:15;93656.59;;;11.48;96.44
39739;BME280;25422;48.286;8.484;2023-02-22T13:42:02;93658.03;;;11.29;99.06
39739;BME280;25422;48.286;8.484;2023-02-22T13:47:36;93658.53;;;11.03;100.00
39739;BME280;25422;48.286;8.484;2023-02-22T13:50:34;93662.97;;;11.02;100.00
39739;BME280;25422;48.286;8.484;2023-02-22T13:53:11;93661.72;;;10.98;100.00
39739;BME280;25422;48.286;8.484;2023-02-22T13:55:40;93666.63;;;10.86;100.00
39739;BME280;25422;48.286;8.484;2023-02-22T13:58:09;93666.34;;;10.96;100.00
39739;BME280;25422;48.286;8.484;2023-02-22T14:08:07;93659.56;;;11.02;100.00
39739;BME280;25422;48.286;8.484;2023-02-22T14:16:25;93666.94;;;10.46;100.00
39739;BME280;25422;48.286;8.484;2023-02-22T14:19:23;93664.94;;;10.34;100.00
39739;BME280;25422;48.286;8.484;2023-02-22T14:22:01;93667.31;;;10.43;100.00
39739;BME280;25422;48.286;8.484;2023-02-22T14:24:29;93661.25;;;10.58;100.00
39739;BME280;25422;48.286;8.484;2023-02-22T14:27:07;93663.75;;;10.66;100.00
39739;BME280;25422;48.286;8.484;2023-02-22T14:29:33;93672.06;;;10.70;100.00
39739;BME280;25422;48.286;8.484;2023-02-22T14:32:08;93665.69;;;10.57;100.00
39739;BME280;25422;48.286;8.484;2023-02-22T14:34:53;93665.75;;;10.64;100.00